createdAt,value
2019-02-04T00:01:08.990Z,87.70
2019-02-04T00:03:38.161Z,87.72
2019-02-04T00:06:07.401Z,87.75
2019-02-04T00:08:36.746Z,87.78
2019-02-04T00:11:06.191Z,87.78
2019-02-04T00:13:35.350Z,87.77
2019-02-04T00:16:04.493Z,87.76
2019-02-04T00:18:33.682Z,87.79
2019-02-04T00:21:03.502Z,87.77
2019-02-04T00:23:32.668Z,87.79
2019-02-04T00:26:01.823Z,87.78
2019-02-04T00:28:31.013Z,87.77
2019-02-04T00:31:00.223Z,87.78
2019-02-04T00:33:29.401Z,87.78
2019-02-04T00:35:58.877Z,87.78
2019-02-04T00:38:28.239Z,87.80
2019-02-04T00:40:57.382Z,87.82
2019-02-04T00:43:26.538Z,87.83
2019-02-04T00:45:55.707Z,87.83
2019-02-04T00:48:24.877Z,87.81
2019-02-04T00:50:54.162Z,87.78
2019-02-04T00:53:23.305Z,87.77
2019-02-04T00:55:52.498Z,87.75
2019-02-04T00:58:21.961Z,87.72
2019-02-04T01:00:51.130Z,87.70
2019-02-04T01:03:20.372Z,87.67
2019-02-04T01:05:49.553Z,87.65
2019-02-04T01:08:18.681Z,87.60
2019-02-04T01:10:47.872Z,87.56
2019-02-04T01:13:17.229Z,87.53
2019-02-04T01:15:46.368Z,87.50
2019-02-04T01:18:15.511Z,87.48
2019-02-04T01:20:44.956Z,87.45
2019-02-04T01:23:14.240Z,87.45
2019-02-04T01:25:43.497Z,87.44
2019-02-04T01:28:12.680Z,87.40
2019-02-04T01:30:42.345Z,87.37
2019-02-04T01:33:11.892Z,87.33
2019-02-04T01:35:41.027Z,87.31
2019-02-04T01:38:10.956Z,87.26
2019-02-04T01:40:40.465Z,87.23
2019-02-04T01:43:09.621Z,87.18
2019-02-04T01:45:38.803Z,87.14
2019-02-04T01:48:08.000Z,87.10
2019-02-04T01:50:37.157Z,87.03
2019-02-04T01:53:06.393Z,86.92
2019-02-04T01:55:35.574Z,86.84
2019-02-04T01:58:04.794Z,86.74
2019-02-04T02:00:36.291Z,86.62
2019-02-04T02:03:05.442Z,86.51
2019-02-04T02:05:35.615Z,86.44
2019-02-04T02:08:04.893Z,86.38
2019-02-04T02:10:34.061Z,86.26
2019-02-04T02:13:03.202Z,86.14
2019-02-04T02:15:32.683Z,85.96
2019-02-04T02:18:01.819Z,85.73
2019-02-04T02:20:31.170Z,85.54
2019-02-04T02:23:00.368Z,85.37
2019-02-04T02:25:29.552Z,85.19
2019-02-04T02:27:58.712Z,85.00
2019-02-04T02:30:30.479Z,84.87
2019-02-04T02:32:59.833Z,84.78
2019-02-04T02:35:29.016Z,84.72
2019-02-04T02:37:58.647Z,84.70
2019-02-04T02:40:33.305Z,84.67
2019-02-04T02:43:02.770Z,84.73
2019-02-04T02:45:32.180Z,84.72
2019-02-04T02:48:01.358Z,84.72
2019-02-04T02:50:30.870Z,84.64
2019-02-04T02:53:00.169Z,84.61
2019-02-04T02:55:29.341Z,84.58
2019-02-04T02:57:58.867Z,84.53
2019-02-04T03:00:32.026Z,84.52
2019-02-04T03:03:01.197Z,84.52
2019-02-04T03:05:30.387Z,84.52
2019-02-04T03:07:59.633Z,84.58
2019-02-04T03:10:31.255Z,84.66
2019-02-04T03:13:00.571Z,84.69
2019-02-04T03:15:29.734Z,84.68
2019-02-04T03:17:58.985Z,84.61
2019-02-04T03:20:28.426Z,84.57
2019-02-04T03:22:57.567Z,84.55
2019-02-04T03:25:27.022Z,84.51
2019-02-04T03:27:56.209Z,84.43
2019-02-04T03:30:32.994Z,84.39
2019-02-04T03:33:02.596Z,84.43
2019-02-04T03:35:31.925Z,84.54
2019-02-04T03:38:02.213Z,84.61
2019-02-04T03:40:32.802Z,84.78
2019-02-04T03:43:02.010Z,84.93
2019-02-04T03:45:31.201Z,85.00
2019-02-04T03:48:06.432Z,85.06
2019-02-04T03:50:31.366Z,84.94
2019-02-04T03:53:00.537Z,84.85
2019-02-04T03:55:29.666Z,84.83
2019-02-04T03:57:59.271Z,84.77
2019-02-04T04:00:31.018Z,84.73
2019-02-04T04:03:00.374Z,84.40
2019-02-04T04:05:29.856Z,84.15
2019-02-04T04:07:59.095Z,84.10
2019-02-04T04:10:28.638Z,83.84
2019-02-04T04:12:57.909Z,83.53
2019-02-04T04:15:27.076Z,83.34
2019-02-04T04:17:56.283Z,83.10
2019-02-04T04:20:25.438Z,82.89
2019-02-04T04:22:54.723Z,82.70
2019-02-04T04:25:23.884Z,82.59
2019-02-04T04:27:53.093Z,82.46
2019-02-04T04:30:27.081Z,82.48
2019-02-04T04:32:57.016Z,82.45
2019-02-04T04:35:26.216Z,82.63
2019-02-04T04:37:55.573Z,82.77
2019-02-04T04:40:24.888Z,82.81
2019-02-04T04:42:54.027Z,82.86
2019-02-04T04:45:24.374Z,82.90
2019-02-04T04:47:53.901Z,83.06
2019-02-04T04:50:23.117Z,83.10
2019-02-04T04:52:52.303Z,83.15
2019-02-04T04:55:23.477Z,83.17
2019-02-04T04:57:52.721Z,83.11
2019-02-04T05:00:24.352Z,83.15
2019-02-04T05:02:53.635Z,83.16
2019-02-04T05:05:22.800Z,83.17
2019-02-04T05:07:52.175Z,83.13
2019-02-04T05:10:22.017Z,83.13
2019-02-04T05:12:51.417Z,83.12
2019-02-04T05:15:22.879Z,83.09
2019-02-04T05:17:52.865Z,83.04
2019-02-04T05:20:22.472Z,83.03
2019-02-04T05:22:51.637Z,83.05
2019-02-04T05:25:20.815Z,83.00
2019-02-04T05:27:50.280Z,82.96
2019-02-04T05:30:27.695Z,83.00
2019-02-04T05:32:56.881Z,82.92
2019-02-04T05:35:26.051Z,82.95
2019-02-04T05:37:55.230Z,82.91
2019-02-04T05:40:24.436Z,82.81
2019-02-04T05:42:53.587Z,82.82
2019-02-04T05:45:22.767Z,82.85
2019-02-04T05:47:51.914Z,82.81
2019-02-04T05:50:22.203Z,82.82
2019-02-04T05:52:51.414Z,82.84
2019-02-04T05:55:22.010Z,82.81
2019-02-04T05:57:51.211Z,82.71
2019-02-04T06:00:35.469Z,82.88
2019-02-04T06:03:04.659Z,82.79
2019-02-04T06:05:33.803Z,82.72
2019-02-04T06:08:03.136Z,82.59
2019-02-04T06:10:32.360Z,82.46
2019-02-04T06:13:02.184Z,82.36
2019-02-04T06:15:31.440Z,82.33
2019-02-04T06:18:00.597Z,82.29
2019-02-04T06:20:29.959Z,82.24
2019-02-04T06:22:59.102Z,82.09
2019-02-04T06:25:28.307Z,82.12
2019-02-04T06:27:57.459Z,82.07
2019-02-04T06:30:26.627Z,81.90
2019-02-04T06:32:55.829Z,81.72
2019-02-04T06:35:25.053Z,81.67
2019-02-04T06:37:54.432Z,81.66
2019-02-04T06:40:25.290Z,81.55
2019-02-04T06:42:54.482Z,81.34
2019-02-04T06:45:23.676Z,81.35
2019-02-04T06:47:52.794Z,81.25
2019-02-04T06:50:22.818Z,81.16
2019-02-04T06:52:51.980Z,81.23
2019-02-04T06:55:30.498Z,81.37
2019-02-04T06:57:59.690Z,81.36
2019-02-04T07:00:28.932Z,81.55
2019-02-04T07:02:58.476Z,81.67
2019-02-04T07:05:27.624Z,81.83
2019-02-04T07:07:56.791Z,81.82
2019-02-04T07:10:26.400Z,81.87
2019-02-04T07:12:55.583Z,81.95
2019-02-04T07:15:24.728Z,81.88
2019-02-04T07:17:54.126Z,81.66
2019-02-04T07:20:24.955Z,81.48
2019-02-04T07:22:54.302Z,81.43
2019-02-04T07:25:24.525Z,81.38
2019-02-04T07:27:53.930Z,81.43
2019-02-04T07:30:24.997Z,81.23
2019-02-04T07:32:54.667Z,81.21
2019-02-04T07:35:23.988Z,81.24
2019-02-04T07:37:53.145Z,81.04
2019-02-04T07:40:28.265Z,80.98
2019-02-04T07:42:57.467Z,80.92
2019-02-04T07:45:26.606Z,80.79
2019-02-04T07:47:55.774Z,80.67
2019-02-04T07:50:24.951Z,80.42
2019-02-04T07:52:54.330Z,80.29
2019-02-04T07:55:23.476Z,80.12
2019-02-04T07:57:52.635Z,80.13
2019-02-04T08:00:24.296Z,80.06
2019-02-04T08:02:53.749Z,80.06
2019-02-04T08:05:23.295Z,79.93
2019-02-04T08:07:52.507Z,79.93
2019-02-04T08:10:24.214Z,79.74
2019-02-04T08:13:00.819Z,79.82
2019-02-04T08:15:26.912Z,79.80
2019-02-04T08:17:56.719Z,79.71
2019-02-04T08:20:25.989Z,79.86
2019-02-04T08:22:55.156Z,79.66
2019-02-04T08:25:26.000Z,79.55
2019-02-04T08:27:55.219Z,79.37
2019-02-04T08:30:29.429Z,79.42
2019-02-04T08:32:58.579Z,79.17
2019-02-04T08:35:27.717Z,79.07
2019-02-04T08:37:56.912Z,78.79
2019-02-04T08:40:27.108Z,78.83
2019-02-04T08:42:56.535Z,78.60
2019-02-04T08:45:27.924Z,78.33
2019-02-04T08:47:57.105Z,78.25
2019-02-04T08:50:26.658Z,78.17
2019-02-04T08:52:56.110Z,77.91
2019-02-04T08:55:25.389Z,77.56
2019-02-04T08:57:54.916Z,77.32
2019-02-04T09:00:27.460Z,77.08
2019-02-04T09:02:56.655Z,77.01
2019-02-04T09:05:25.879Z,76.86
2019-02-04T09:07:55.194Z,76.57
2019-02-04T09:10:29.726Z,76.47
2019-02-04T09:12:59.361Z,76.41
2019-02-04T09:15:28.775Z,75.88
2019-02-04T09:17:58.746Z,75.90
2019-02-04T09:20:28.123Z,75.48
2019-02-04T09:22:58.301Z,75.43
2019-02-04T09:25:27.717Z,75.36
2019-02-04T09:27:57.404Z,75.22
2019-02-04T09:30:27.258Z,75.09
2019-02-04T09:32:57.290Z,74.87
2019-02-04T09:35:26.423Z,74.73
2019-02-04T09:37:55.583Z,74.47
2019-02-04T09:40:30.492Z,74.29
2019-02-04T09:42:59.734Z,73.92
2019-02-04T09:45:28.860Z,73.78
2019-02-04T09:47:58.184Z,73.59
2019-02-04T09:50:28.145Z,73.36
2019-02-04T09:52:57.490Z,73.19
2019-02-04T09:55:29.619Z,72.83
2019-02-04T09:57:58.770Z,72.45
2019-02-04T10:00:30.005Z,72.08
2019-02-04T10:02:59.163Z,72.35
2019-02-04T10:05:28.359Z,72.11
2019-02-04T10:07:57.546Z,71.98
2019-02-04T10:10:27.458Z,72.34
2019-02-04T10:12:57.088Z,71.90
2019-02-04T10:15:28.503Z,71.43
2019-02-04T10:17:57.686Z,71.08
2019-02-04T10:20:34.016Z,71.34
2019-02-04T10:22:58.135Z,71.11
2019-02-04T10:25:29.849Z,70.83
2019-02-04T10:27:59.032Z,69.89
2019-02-04T10:30:28.208Z,70.10
2019-02-04T10:32:57.355Z,69.76
2019-02-04T10:35:26.519Z,69.63
2019-02-04T10:37:55.960Z,69.37
2019-02-04T10:40:25.936Z,69.46
2019-02-04T10:42:55.409Z,69.08
2019-02-04T10:45:24.612Z,67.83
2019-02-04T10:47:53.768Z,67.70
2019-02-04T10:50:25.415Z,67.77
2019-02-04T10:52:54.622Z,67.17
2019-02-04T10:55:23.870Z,67.60
2019-02-04T10:57:53.059Z,67.73
2019-02-04T11:00:25.312Z,66.94
2019-02-04T11:02:54.844Z,66.41
2019-02-04T11:05:26.393Z,66.76
2019-02-04T11:07:55.855Z,66.30
2019-02-04T11:10:30.840Z,66.54
2019-02-04T11:13:00.055Z,66.87
2019-02-04T11:15:29.196Z,65.90
2019-02-04T11:17:58.664Z,65.16
2019-02-04T11:20:28.912Z,65.73
2019-02-04T11:22:58.232Z,64.95
2019-02-04T11:25:27.641Z,64.96
2019-02-04T11:27:57.040Z,64.91
2019-02-04T11:30:40.615Z,63.96
2019-02-04T11:33:10.284Z,63.66
2019-02-04T11:35:39.724Z,63.33
2019-02-04T11:38:09.394Z,63.16
2019-02-04T11:40:39.237Z,62.75
2019-02-04T11:43:08.427Z,62.18
2019-02-04T11:45:37.935Z,62.11
2019-02-04T11:48:09.573Z,61.48
2019-02-04T11:50:39.255Z,62.04
2019-02-04T11:53:08.361Z,62.03
2019-02-04T11:55:37.875Z,62.10
2019-02-04T11:58:08.194Z,61.61
2019-02-04T12:00:37.889Z,61.78
2019-02-04T12:03:08.059Z,62.08
2019-02-04T12:05:37.551Z,61.84
2019-02-04T12:08:06.845Z,61.92
2019-02-04T12:10:39.275Z,61.99
2019-02-04T12:13:08.424Z,62.61
2019-02-04T12:15:37.658Z,62.38
2019-02-04T12:18:07.129Z,62.25
2019-02-04T12:20:36.269Z,62.25
2019-02-04T12:23:06.042Z,62.65
2019-02-04T12:25:35.517Z,62.66
2019-02-04T12:28:04.675Z,62.59
2019-02-04T12:30:38.623Z,62.24
2019-02-04T12:33:09.661Z,62.69
2019-02-04T12:35:38.921Z,62.70
2019-02-04T12:38:08.155Z,62.63
2019-02-04T12:40:37.828Z,61.80
2019-02-04T12:43:07.140Z,62.10
2019-02-04T12:45:36.744Z,62.55
2019-02-04T12:48:06.243Z,61.98
2019-02-04T12:50:35.691Z,62.23
2019-02-04T12:53:05.106Z,63.00
2019-02-04T12:55:34.626Z,62.75
2019-02-04T12:58:05.299Z,62.51
2019-02-04T13:00:34.661Z,62.40
2019-02-04T13:03:03.842Z,62.11
2019-02-04T13:05:36.073Z,62.48
2019-02-04T13:08:07.340Z,62.47
2019-02-04T13:10:36.525Z,62.94
2019-02-04T13:13:08.770Z,62.78
2019-02-04T13:15:38.320Z,62.90
2019-02-04T13:18:07.762Z,62.82
2019-02-04T13:20:36.949Z,62.85
2019-02-04T13:23:06.352Z,63.51
2019-02-04T13:25:35.488Z,63.17
2019-02-04T13:28:05.682Z,63.35
2019-02-04T13:30:35.035Z,63.37
2019-02-04T13:33:04.209Z,63.45
2019-02-04T13:35:33.367Z,63.19
2019-02-04T13:38:02.573Z,63.12
2019-02-04T13:40:31.755Z,62.91
2019-02-04T13:43:04.188Z,62.79
2019-02-04T13:45:33.380Z,63.64
2019-02-04T13:48:02.516Z,63.31
2019-02-04T13:50:32.323Z,63.76
2019-02-04T13:53:01.476Z,63.49
2019-02-04T13:55:32.071Z,63.40
2019-02-04T13:58:01.655Z,63.48
2019-02-04T14:00:32.506Z,63.87
2019-02-04T14:03:01.978Z,63.77
2019-02-04T14:05:31.849Z,63.59
2019-02-04T14:08:01.368Z,63.45
2019-02-04T14:10:35.603Z,63.48
2019-02-04T14:13:05.163Z,63.71
2019-02-04T14:15:37.009Z,63.83
2019-02-04T14:18:07.333Z,63.65
2019-02-04T14:20:36.635Z,63.52
2019-02-04T14:23:05.860Z,63.40
2019-02-04T14:25:34.981Z,63.27
2019-02-04T14:28:05.417Z,63.63
2019-02-04T14:30:36.899Z,63.21
2019-02-04T14:33:06.656Z,62.91
2019-02-04T14:35:36.075Z,62.98
2019-02-04T14:38:06.848Z,62.94
2019-02-04T14:40:36.025Z,63.89
2019-02-04T14:43:21.995Z,63.07
2019-02-04T14:46:41.894Z,62.82
2019-02-04T14:49:48.151Z,63.03
2019-02-04T14:52:58.072Z,62.45
2019-02-04T14:56:08.963Z,62.69
2019-02-04T14:58:58.944Z,62.77
2019-02-04T15:02:15.252Z,62.44
2019-02-04T15:05:37.374Z,62.66
2019-02-04T15:08:42.465Z,62.26
2019-02-04T15:11:44.563Z,61.96
2019-02-04T15:15:03.117Z,61.96
2019-02-04T15:17:40.209Z,61.77
2019-02-04T15:20:52.659Z,61.95
2019-02-04T15:23:47.349Z,62.77
2019-02-04T15:26:44.801Z,63.69
2019-02-04T15:29:24.301Z,64.62
2019-02-04T15:32:20.889Z,66.40
2019-02-04T15:35:34.286Z,68.31
2019-02-04T15:38:35.146Z,70.91
2019-02-04T15:41:45.150Z,72.54
2019-02-04T15:44:38.050Z,73.67
2019-02-04T15:47:18.121Z,74.64
2019-02-04T15:50:23.747Z,74.90
2019-02-04T15:52:52.901Z,75.34
2019-02-04T15:55:22.273Z,75.70
2019-02-04T15:57:51.413Z,76.35
2019-02-04T16:00:25.784Z,76.80
2019-02-04T16:02:55.171Z,76.73
2019-02-04T16:05:24.613Z,76.72
2019-02-04T16:07:54.083Z,76.23
2019-02-04T16:10:23.227Z,75.75
2019-02-04T16:12:52.377Z,76.03
2019-02-04T16:15:21.857Z,75.40
2019-02-04T16:17:51.008Z,75.42
2019-02-04T16:20:22.860Z,74.92
2019-02-04T16:22:58.459Z,74.67
2019-02-04T16:25:23.243Z,74.77
2019-02-04T16:27:52.388Z,74.90
2019-02-04T16:30:22.481Z,74.47
2019-02-04T16:32:52.940Z,73.97
2019-02-04T16:35:22.261Z,73.33
2019-02-04T16:37:51.613Z,73.31
2019-02-04T16:40:22.625Z,72.85
2019-02-04T16:42:51.975Z,72.89
2019-02-04T16:45:22.249Z,73.25
2019-02-04T16:47:51.818Z,71.84
2019-02-04T16:50:26.138Z,71.54
2019-02-04T16:52:55.526Z,70.97
2019-02-04T16:55:24.651Z,70.59
2019-02-04T16:57:54.546Z,70.27
2019-02-04T17:00:28.902Z,69.74
2019-02-04T17:02:58.121Z,69.92
2019-02-04T17:05:27.752Z,68.55
2019-02-04T17:07:57.017Z,68.63
2019-02-04T17:10:26.574Z,67.96
2019-02-04T17:12:56.021Z,68.31
2019-02-04T17:15:26.186Z,67.65
2019-02-04T17:17:55.346Z,67.46
2019-02-04T17:20:30.284Z,66.91
2019-02-04T17:22:59.527Z,67.06
2019-02-04T17:25:28.728Z,67.12
2019-02-04T17:27:57.881Z,66.44
2019-02-04T17:30:27.395Z,66.32
2019-02-04T17:32:57.110Z,66.71
2019-02-04T17:35:26.351Z,67.27
2019-02-04T17:37:55.505Z,67.20
2019-02-04T17:40:25.133Z,67.42
2019-02-04T17:42:54.801Z,66.83
2019-02-04T17:45:23.992Z,66.75
2019-02-04T17:47:53.436Z,67.00
2019-02-04T17:50:22.906Z,67.20
2019-02-04T17:52:52.225Z,67.35
2019-02-04T17:55:22.927Z,67.47
2019-02-04T17:57:52.521Z,67.65
2019-02-04T18:00:42.400Z,67.96
2019-02-04T18:03:11.577Z,68.60
2019-02-04T18:05:40.739Z,68.60
2019-02-04T18:08:10.177Z,68.68
2019-02-04T18:10:39.440Z,68.83
2019-02-04T18:13:08.628Z,68.84
2019-02-04T18:15:37.826Z,69.28
2019-02-04T18:18:07.422Z,69.44
2019-02-04T18:20:36.674Z,69.53
2019-02-04T18:23:07.065Z,69.89
2019-02-04T18:25:36.948Z,69.99
2019-02-04T18:28:06.644Z,70.45
2019-02-04T18:30:36.282Z,70.86
2019-02-04T18:33:05.809Z,70.90
2019-02-04T18:35:35.568Z,70.48
2019-02-04T18:38:04.734Z,70.24
2019-02-04T18:40:33.977Z,69.77
2019-02-04T18:43:03.216Z,69.13
2019-02-04T18:45:33.780Z,68.89
2019-02-04T18:48:04.888Z,69.36
2019-02-04T18:50:34.978Z,68.91
2019-02-04T18:53:04.322Z,68.68
2019-02-04T18:55:33.964Z,68.63
2019-02-04T18:58:03.159Z,68.72
2019-02-04T19:00:32.492Z,68.45
2019-02-04T19:03:03.428Z,67.85
2019-02-04T19:05:32.992Z,67.50
2019-02-04T19:08:04.787Z,67.33
2019-02-04T19:10:34.315Z,67.38
2019-02-04T19:13:03.570Z,66.86
2019-02-04T19:15:33.299Z,66.81
2019-02-04T19:18:05.961Z,66.53
2019-02-04T19:20:36.356Z,66.61
2019-02-04T19:23:06.072Z,66.15
2019-02-04T19:25:35.339Z,66.61
2019-02-04T19:28:04.865Z,66.17
2019-02-04T19:30:47.339Z,65.90
2019-02-04T19:33:16.569Z,65.02
2019-02-04T19:35:45.863Z,65.22
2019-02-04T19:38:15.081Z,65.21
2019-02-04T19:40:46.205Z,65.40
2019-02-04T19:43:15.956Z,65.18
2019-02-04T19:45:45.190Z,65.35
2019-02-04T19:48:15.909Z,65.55
2019-02-04T19:50:45.160Z,65.62
2019-02-04T19:53:15.898Z,65.78
2019-02-04T19:55:45.496Z,66.53
2019-02-04T19:58:15.088Z,68.42
2019-02-04T20:00:45.854Z,69.76
2019-02-04T20:03:15.830Z,70.72
2019-02-04T20:05:47.439Z,71.64
2019-02-04T20:08:16.798Z,72.71
2019-02-04T20:10:46.841Z,73.26
2019-02-04T20:13:18.935Z,73.83
2019-02-04T20:15:48.181Z,74.21
2019-02-04T20:18:17.567Z,74.76
2019-02-04T20:20:48.153Z,75.32
2019-02-04T20:23:18.787Z,75.82
2019-02-04T20:25:48.652Z,76.32
2019-02-04T20:28:18.410Z,76.84
2019-02-04T20:30:47.717Z,77.03
2019-02-04T20:33:17.042Z,77.22
2019-02-04T20:35:47.784Z,77.52
2019-02-04T20:38:17.623Z,77.81
2019-02-04T20:40:47.309Z,78.07
2019-02-04T20:43:16.646Z,78.34
2019-02-04T20:45:46.365Z,78.53
2019-02-04T20:48:16.100Z,78.68
2019-02-04T20:50:46.893Z,78.95
2019-02-04T20:53:16.376Z,79.36
2019-02-04T20:55:46.998Z,79.58
2019-02-04T20:58:16.320Z,79.61
2019-02-04T21:00:46.004Z,79.59
2019-02-04T21:03:16.620Z,79.88
2019-02-04T21:05:45.958Z,79.91
2019-02-04T21:08:15.205Z,80.21
2019-02-04T21:10:44.598Z,80.34
2019-02-04T21:13:13.892Z,80.55
2019-02-04T21:15:43.363Z,80.61
2019-02-04T21:18:12.568Z,80.53
2019-02-04T21:20:41.792Z,80.57
2019-02-04T21:23:13.113Z,80.41
2019-02-04T21:25:42.612Z,80.41
2019-02-04T21:28:11.813Z,80.79
2019-02-04T21:30:42.900Z,80.99
2019-02-04T21:33:12.172Z,81.17
2019-02-04T21:35:41.550Z,81.36
2019-02-04T21:38:11.271Z,81.17
2019-02-04T21:40:40.573Z,81.31
2019-02-04T21:43:09.896Z,81.39
2019-02-04T21:45:39.069Z,81.25
2019-02-04T21:48:08.337Z,81.40
2019-02-04T21:50:37.512Z,81.41
2019-02-04T21:53:07.492Z,81.21
2019-02-04T21:55:36.648Z,81.23
2019-02-04T21:58:06.557Z,81.17
2019-02-04T22:00:37.948Z,81.10
2019-02-04T22:03:07.250Z,81.26
2019-02-04T22:05:36.450Z,81.27
2019-02-04T22:08:06.645Z,81.40
2019-02-04T22:10:35.821Z,81.35
2019-02-04T22:13:05.423Z,81.30
2019-02-04T22:15:35.056Z,81.39
2019-02-04T22:18:04.398Z,81.20
2019-02-04T22:20:33.930Z,81.30
2019-02-04T22:23:03.257Z,81.33
2019-02-04T22:25:32.460Z,81.20
2019-02-04T22:28:01.765Z,81.28
2019-02-04T22:30:31.304Z,81.07
2019-02-04T22:33:00.544Z,81.02
2019-02-04T22:35:29.716Z,81.00
2019-02-04T22:37:59.148Z,81.15
2019-02-04T22:40:30.068Z,81.45
2019-02-04T22:42:59.994Z,81.74
2019-02-04T22:45:29.191Z,82.05
2019-02-04T22:47:58.334Z,82.28
2019-02-04T22:50:31.336Z,82.44
2019-02-04T22:53:02.738Z,82.60
2019-02-04T22:55:32.565Z,82.93
2019-02-04T22:58:02.673Z,83.06
2019-02-04T23:00:54.733Z,83.14
2019-02-04T23:03:24.518Z,83.32
2019-02-04T23:05:53.927Z,83.31
2019-02-04T23:08:26.101Z,83.36
2019-02-04T23:10:55.214Z,83.48
2019-02-04T23:13:24.426Z,83.51
2019-02-04T23:15:54.235Z,83.63
2019-02-04T23:18:23.790Z,83.52
2019-02-04T23:20:52.939Z,83.51
2019-02-04T23:23:22.214Z,83.70
2019-02-04T23:25:51.399Z,83.88
2019-02-04T23:28:20.673Z,83.97
2019-02-04T23:30:50.092Z,84.12
2019-02-04T23:33:19.493Z,84.23
2019-02-04T23:35:48.681Z,84.31
2019-02-04T23:38:18.043Z,84.18
2019-02-04T23:40:47.230Z,84.14
2019-02-04T23:43:16.370Z,84.16
2019-02-04T23:45:45.649Z,84.20
2019-02-04T23:48:14.955Z,84.25
2019-02-04T23:50:44.271Z,84.29
2019-02-04T23:53:13.406Z,84.25
2019-02-04T23:55:54.084Z,84.30
2019-02-04T23:58:13.481Z,84.30
